Time;durP1;ratioP1;P1;durP2;ratioP2;P2;SDS_P1;SDS_P2;PMS_P1;PMS_P2;Temp;Humidity;BMP_temperature;BMP_pressure;BME280_temperature;BME280_humidity;BME280_pressure;Samples;Min_cycle;Max_cycle;Signal;HPM_P1;HPM_P2
2023/07/27 00:00:52;;;;;;;6.18;3.47;;;21.90;88.00;;;;;;5048293;28;20032;-68
2023/07/27 00:03:18;;;;;;;5.10;2.97;;;21.80;87.80;;;;;;5048072;28;20047;-70
2023/07/27 00:05:44;;;;;;;6.63;3.00;;;21.70;87.70;;;;;;5050405;28;20402;-70
2023/07/27 00:08:09;;;;;;;4.57;2.60;;;21.80;87.80;;;;;;5040465;28;20038;-63
2023/07/27 00:10:35;;;;;;;6.93;3.00;;;22.00;87.80;;;;;;5049722;28;20048;-64
2023/07/27 00:13:01;;;;;;;5.43;2.80;;;21.80;87.60;;;;;;5043741;28;20040;-66
2023/07/27 00:15:27;;;;;;;6.20;3.08;;;21.90;87.80;;;;;;5049831;28;20047;-63
2023/07/27 00:17:52;;;;;;;7.35;3.30;;;21.90;88.00;;;;;;5041487;28;20049;-70
2023/07/27 00:20:18;;;;;;;5.65;3.10;;;21.70;87.70;;;;;;5042852;28;20543;-69
2023/07/27 00:22:44;;;;;;;6.63;3.00;;;21.90;87.80;;;;;;5039150;28;20037;-70
2023/07/27 00:25:10;;;;;;;4.50;2.80;;;21.80;87.70;;;;;;5037363;28;20044;-71
2023/07/27 00:27:36;;;;;;;5.88;3.20;;;;;;;;;;5049740;28;20061;-65
2023/07/27 00:30:02;;;;;;;5.55;2.95;;;21.70;87.70;;;;;;5039559;28;20046;-63
2023/07/27 00:32:27;;;;;;;5.20;3.00;;;21.70;87.70;;;;;;5046121;28;20043;-62
2023/07/27 00:34:53;;;;;;;5.18;3.03;;;21.80;87.70;;;;;;5048662;28;20049;-66
2023/07/27 00:37:19;;;;;;;6.88;2.80;;;21.70;87.70;;;;;;5042741;28;20029;-62
2023/07/27 00:39:45;;;;;;;6.80;3.30;;;;;;;;;;5052399;28;20127;-63
2023/07/27 00:42:11;;;;;;;5.75;3.05;;;21.80;87.70;;;;;;5045828;28;20091;-63
2023/07/27 00:44:37;;;;;;;6.53;3.15;;;21.90;87.90;;;;;;5046396;28;20037;-63
2023/07/27 00:47:02;;;;;;;4.78;2.63;;;21.70;87.60;;;;;;5038364;28;20077;-64
2023/07/27 00:49:29;;;;;;;5.80;3.05;;;21.60;87.60;;;;;;5053194;28;20459;-63
2023/07/27 00:51:55;;;;;;;5.63;3.35;;;21.80;87.70;;;;;;5053242;28;20052;-63
2023/07/27 00:54:21;;;;;;;4.85;3.05;;;21.90;87.70;;;;;;5051547;28;20071;-63
2023/07/27 00:56:47;;;;;;;5.10;2.80;;;21.80;87.70;;;;;;5037217;28;20713;-63
2023/07/27 00:59:13;;;;;;;5.80;3.17;;;21.60;87.60;;;;;;5041264;28;20048;-63
2023/07/27 01:01:38;;;;;;;6.85;3.00;;;21.80;87.70;;;;;;5055319;28;20402;-62
2023/07/27 01:04:04;;;;;;;5.85;3.25;;;21.80;87.70;;;;;;5055396;28;20098;-71
2023/07/27 01:06:30;;;;;;;5.20;2.83;;;21.70;87.50;;;;;;5052759;28;20037;-69
2023/07/27 01:08:56;;;;;;;5.20;2.75;;;21.70;87.70;;;;;;5038809;28;20044;-71
2023/07/27 01:11:30;;;;;;;6.55;3.38;;;21.80;87.80;;;;;;5043878;28;20053;-69
2023/07/27 01:14:02;;;;;;;6.03;2.88;;;21.80;87.60;;;;;;5053172;28;20051;-64
2023/07/27 01:16:34;;;;;;;5.30;3.13;;;21.70;87.70;;;;;;5046272;28;20588;-70
2023/07/27 01:19:19;;;;;;;5.47;3.10;;;21.80;87.60;;;;;;5049571;28;20075;-66
2023/07/27 01:21:48;;;;;;;5.88;3.03;;;21.70;87.60;;;;;;5047078;28;20106;-63
2023/07/27 01:24:51;;;;;;;5.28;3.00;;;21.70;87.60;;;;;;5051575;28;20065;-70
2023/07/27 01:27:22;;;;;;;5.82;3.30;;;21.80;87.60;;;;;;5050402;28;20068;-70
2023/07/27 01:30:09;;;;;;;6.35;3.13;;;21.60;87.60;;;;;;5044893;28;20695;-64
2023/07/27 01:32:35;;;;;;;4.88;2.75;;;21.70;87.80;;;;;;5045992;28;20399;-70
2023/07/27 01:35:01;;;;;;;5.40;3.00;;;21.60;87.60;;;;;;5051676;28;20090;-69
2023/07/27 01:37:27;;;;;;;5.00;2.97;;;21.60;87.60;;;;;;5042341;28;20044;-69
2023/07/27 01:39:53;;;;;;;5.25;3.15;;;21.60;87.50;;;;;;5044993;28;20064;-70
2023/07/27 01:42:19;;;;;;;6.00;2.85;;;;;;;;;;5043634;28;20053;-67
2023/07/27 01:44:45;;;;;;;6.28;3.42;;;21.60;87.50;;;;;;5047649;28;20049;-70
2023/07/27 01:47:11;;;;;;;6.28;3.00;;;21.60;87.50;;;;;;5041249;28;20498;-67
2023/07/27 01:49:38;;;;;;;5.82;3.45;;;21.70;85.00;;;;;;5042795;28;20045;-66
2023/07/27 01:52:04;;;;;;;5.88;2.97;;;21.70;88.40;;;;;;5045993;28;20041;-70
2023/07/27 01:54:29;;;;;;;5.88;3.30;;;21.70;87.60;;;;;;5046998;28;20036;-70
2023/07/27 01:56:55;;;;;;;5.90;3.58;;;21.80;85.30;;;;;;5051484;28;20052;-66
2023/07/27 01:59:21;;;;;;;5.85;3.47;;;21.70;87.60;;;;;;5036387;28;20047;-69
2023/07/27 02:01:49;;;;;;;5.55;3.22;;;21.60;87.60;;;;;;5051153;28;20076;-69
2023/07/27 02:04:14;;;;;;;5.32;3.08;;;21.70;85.50;;;;;;5051894;28;20045;-67
2023/07/27 02:06:40;;;;;;;6.88;3.20;;;;;;;;;;5039450;28;20053;-70
2023/07/27 02:09:06;;;;;;;5.57;3.13;;;21.70;87.60;;;;;;5045230;28;20116;-67
2023/07/27 02:11:32;;;;;;;6.82;3.33;;;21.60;87.20;;;;;;5049484;28;20455;-61
2023/07/27 02:14:20;;;;;;;5.97;3.28;;;21.60;87.90;;;;;;5032660;28;20396;-71
2023/07/27 02:16:52;;;;;;;5.47;3.28;;;21.60;87.60;;;;;;5075595;28;20510;-69
2023/07/27 02:19:17;;;;;;;5.30;3.10;;;21.60;87.50;;;;;;5041812;28;20037;-67
2023/07/27 02:21:43;;;;;;;4.95;3.00;;;21.80;87.60;;;;;;5043147;28;20107;-70
2023/07/27 02:24:09;;;;;;;5.72;3.28;;;;;;;;;;5037961;28;20057;-67
2023/07/27 02:26:35;;;;;;;6.13;3.58;;;21.40;87.50;;;;;;5052321;28;20099;-63
2023/07/27 02:29:01;;;;;;;5.57;3.35;;;21.60;85.30;;;;;;5043389;28;20041;-69
2023/07/27 02:31:26;;;;;;;6.55;3.30;;;21.50;87.60;;;;;;5038055;28;20049;-67
2023/07/27 02:33:52;;;;;;;5.47;3.25;;;21.50;87.50;;;;;;5049897;28;20076;-67
2023/07/27 02:36:18;;;;;;;5.38;3.28;;;21.40;87.40;;;;;;5052393;28;20037;-65
2023/07/27 02:38:44;;;;;;;5.07;3.00;;;;;;;;;;5046387;28;20442;-62
2023/07/27 02:41:10;;;;;;;6.75;3.65;;;21.60;87.60;;;;;;5045289;28;20495;-70
2023/07/27 02:43:37;;;;;;;6.63;3.33;;;21.70;87.60;;;;;;5045408;28;20615;-70
2023/07/27 02:46:04;;;;;;;5.32;3.22;;;21.60;87.60;;;;;;5050770;28;20499;-68
2023/07/27 02:48:29;;;;;;;6.82;2.95;;;21.60;87.60;;;;;;5044988;28;20042;-71
2023/07/27 02:50:55;;;;;;;4.95;2.83;;;21.50;87.50;;;;;;5048854;28;20434;-71
2023/07/27 02:53:21;;;;;;;5.22;3.17;;;21.50;87.50;;;;;;5042641;28;20029;-64
2023/07/27 02:56:03;;;;;;;4.78;3.10;;;21.50;87.50;;;;;;5049854;28;20048;-70
2023/07/27 02:58:29;;;;;;;6.05;3.00;;;21.80;87.70;;;;;;5041141;28;20102;-69
2023/07/27 03:00:58;;;;;;;5.65;3.17;;;21.30;84.60;;;;;;5047118;28;20128;-65
2023/07/27 03:03:24;;;;;;;5.50;3.00;;;21.50;87.60;;;;;;5051537;28;20376;-70
2023/07/27 03:05:59;;;;;;;4.90;3.05;;;21.70;85.30;;;;;;5048067;28;20375;-69
2023/07/27 03:08:26;;;;;;;4.85;2.70;;;21.60;87.70;;;;;;5051286;28;20036;-62
2023/07/27 03:10:52;;;;;;;5.68;3.42;;;21.70;88.40;;;;;;5042274;28;20037;-67
2023/07/27 03:13:17;;;;;;;5.53;3.08;;;21.70;87.70;;;;;;5038834;28;20775;-64
2023/07/27 03:15:43;;;;;;;7.30;3.28;;;21.50;87.60;;;;;;5050730;28;20486;-66
2023/07/27 03:18:09;;;;;;;5.30;2.90;;;21.60;87.60;;;;;;5048503;28;20037;-70
2023/07/27 03:20:41;;;;;;;4.93;2.90;;;21.50;87.60;;;;;;5047177;28;20044;-69
2023/07/27 03:23:08;;;;;;;5.20;2.88;;;21.60;87.60;;;;;;5040701;28;20123;-69
2023/07/27 03:25:37;;;;;;;5.53;3.25;;;21.40;85.50;;;;;;5041747;28;20056;-68
2023/07/27 03:28:06;;;;;;;5.43;2.83;;;21.50;84.20;;;;;;5042978;28;20046;-63
2023/07/27 03:30:32;;;;;;;5.38;3.03;;;21.50;87.60;;;;;;5043668;28;20045;-69
2023/07/27 03:32:58;;;;;;;5.82;3.17;;;21.50;88.50;;;;;;5045869;28;20041;-68
2023/07/27 03:35:24;;;;;;;6.50;3.03;;;21.60;87.70;;;;;;5045378;28;20045;-67
2023/07/27 03:37:51;;;;;;;5.32;3.00;;;21.70;87.00;;;;;;5040443;28;20049;-70
2023/07/27 03:40:19;;;;;;;5.95;3.55;;;21.60;87.60;;;;;;5048933;28;20056;-70
2023/07/27 03:42:45;;;;;;;5.47;3.10;;;21.50;87.80;;;;;;5051377;28;20049;-70
2023/07/27 03:45:13;;;;;;;5.65;3.20;;;21.40;85.00;;;;;;5048832;28;20109;-67
2023/07/27 03:47:39;;;;;;;5.90;3.15;;;21.50;87.80;;;;;;5042337;28;20488;-61
2023/07/27 03:50:06;;;;;;;5.95;3.00;;;21.60;84.40;;;;;;5047398;28;20048;-64
2023/07/27 03:52:32;;;;;;;6.15;3.20;;;21.50;87.80;;;;;;5051104;28;20037;-69
2023/07/27 03:54:57;;;;;;;5.68;3.00;;;21.60;87.80;;;;;;5049952;28;20041;-64
2023/07/27 03:57:23;;;;;;;5.53;3.10;;;21.60;87.90;;;;;;5039567;28;20450;-70
2023/07/27 03:59:53;;;;;;;5.65;3.25;;;21.40;88.80;;;;;;5042737;28;20041;-70
2023/07/27 04:02:19;;;;;;;5.55;3.03;;;21.60;87.90;;;;;;5050256;28;20072;-70
2023/07/27 04:04:45;;;;;;;5.43;3.15;;;21.50;87.80;;;;;;5047882;28;20088;-70
2023/07/27 04:07:11;;;;;;;5.45;2.88;;;;;;;;;;5037895;28;20053;-66
2023/07/27 04:09:36;;;;;;;5.18;2.95;;;21.70;88.10;;;;;;5049458;28;20052;-68
2023/07/27 04:12:02;;;;;;;6.25;3.35;;;21.40;87.90;;;;;;5037325;28;20403;-67
2023/07/27 04:14:28;;;;;;;4.95;3.08;;;;;;;;;;5044979;28;20038;-70
2023/07/27 04:16:54;;;;;;;6.47;3.35;;;21.50;88.10;;;;;;5053208;28;20055;-71
2023/07/27 04:19:20;;;;;;;5.28;3.08;;;;;;;;;;5045847;28;20049;-67
2023/07/27 04:21:46;;;;;;;5.95;3.15;;;21.40;88.10;;;;;;5051095;28;20049;-69
2023/07/27 04:24:11;;;;;;;5.28;3.33;;;21.40;88.00;;;;;;5054396;28;20048;-68
2023/07/27 04:26:37;;;;;;;5.25;3.17;;;21.50;88.00;;;;;;5051745;28;20037;-69
2023/07/27 04:29:03;;;;;;;5.05;2.95;;;;;;;;;;5040789;28;20041;-64
2023/07/27 04:31:29;;;;;;;5.80;3.30;;;21.50;88.00;;;;;;5039257;28;20045;-67
2023/07/27 04:33:55;;;;;;;4.70;2.97;;;21.60;88.00;;;;;;5038742;28;20044;-65
2023/07/27 04:36:20;;;;;;;4.95;3.00;;;21.40;87.90;;;;;;5050951;28;20110;-64
2023/07/27 04:38:47;;;;;;;5.38;3.40;;;;;;;;;;5039678;28;20450;-70
2023/07/27 04:41:13;;;;;;;5.38;3.10;;;21.40;87.90;;;;;;5045849;28;20045;-69
2023/07/27 04:43:39;;;;;;;4.80;3.05;;;21.50;88.00;;;;;;5053124;28;20113;-69
2023/07/27 04:46:05;;;;;;;6.00;2.90;;;21.50;88.00;;;;;;5052973;28;20049;-69
2023/07/27 04:48:31;;;;;;;5.53;3.20;;;21.60;84.60;;;;;;5054028;28;20032;-67
2023/07/27 04:50:57;;;;;;;5.78;3.60;;;21.40;88.00;;;;;;5052414;28;20399;-69
2023/07/27 04:53:22;;;;;;;5.85;3.22;;;21.50;88.00;;;;;;5040633;28;20045;-68
2023/07/27 04:55:48;;;;;;;4.90;2.95;;;21.60;88.10;;;;;;5045923;28;20111;-68
2023/07/27 04:58:14;;;;;;;5.43;2.92;;;21.40;87.90;;;;;;5046982;28;20044;-66
2023/07/27 05:00:40;;;;;;;5.78;3.38;;;21.50;87.90;;;;;;5045369;28;20423;-68
2023/07/27 05:03:05;;;;;;;5.53;3.20;;;21.50;87.90;;;;;;5050769;28;20081;-70
2023/07/27 05:05:31;;;;;;;6.57;3.33;;;21.50;88.20;;;;;;5050168;28;20120;-68
2023/07/27 05:07:57;;;;;;;6.32;3.28;;;21.60;88.00;;;;;;5051460;28;20076;-66
2023/07/27 05:10:23;;;;;;;5.65;3.28;;;21.70;88.10;;;;;;5053268;28;20048;-70
2023/07/27 05:12:50;;;;;;;5.28;3.17;;;21.60;87.90;;;;;;5038474;28;20049;-61
2023/07/27 05:15:15;;;;;;;7.22;3.20;;;21.40;87.90;;;;;;5047352;28;20039;-68
2023/07/27 05:17:41;;;;;;;7.40;3.33;;;21.60;85.90;;;;;;5045457;28;20120;-66
2023/07/27 05:20:08;;;;;;;6.80;3.35;;;;;;;;;;5052652;28;20398;-70
2023/07/27 05:22:34;;;;;;;5.95;3.38;;;21.60;88.00;;;;;;5044142;28;20426;-66
2023/07/27 05:25:00;;;;;;;5.70;3.15;;;21.70;88.00;;;;;;5050861;28;20057;-65
2023/07/27 05:27:25;;;;;;;6.65;3.40;;;21.50;88.00;;;;;;5048116;28;20052;-70
2023/07/27 05:29:51;;;;;;;5.60;3.10;;;21.50;87.90;;;;;;5046221;28;20048;-64
2023/07/27 05:32:17;;;;;;;6.10;3.40;;;21.70;88.20;;;;;;5050496;28;20033;-69
2023/07/27 05:34:43;;;;;;;4.97;3.00;;;21.90;89.20;;;;;;5053743;28;20037;-68
2023/07/27 05:37:09;;;;;;;5.82;3.17;;;21.70;88.30;;;;;;5051801;28;20586;-68
2023/07/27 05:39:35;;;;;;;5.18;3.00;;;21.60;88.00;;;;;;5045157;28;20037;-69
2023/07/27 05:42:00;;;;;;;6.20;3.35;;;21.70;88.10;;;;;;5050061;28;20052;-63
2023/07/27 05:44:26;;;;;;;6.15;3.13;;;21.70;88.10;;;;;;5048046;28;20528;-70
2023/07/27 05:46:54;;;;;;;5.45;3.28;;;22.00;85.60;;;;;;5045409;28;20419;-66
2023/07/27 05:49:20;;;;;;;4.95;2.80;;;21.80;88.30;;;;;;5043676;28;20106;-69
2023/07/27 05:51:45;;;;;;;4.93;3.28;;;21.70;88.40;;;;;;5052969;28;20044;-68
2023/07/27 05:54:11;;;;;;;5.20;3.20;;;21.60;88.10;;;;;;5046848;28;20065;-69
2023/07/27 05:56:37;;;;;;;5.78;3.20;;;21.60;88.10;;;;;;5052937;28;20045;-66
2023/07/27 05:59:03;;;;;;;4.95;3.03;;;21.60;88.10;;;;;;5050200;28;20048;-69
2023/07/27 06:01:28;;;;;;;5.97;3.22;;;21.80;88.20;;;;;;5046008;28;20120;-67
2023/07/27 06:03:55;;;;;;;5.53;3.15;;;;;;;;;;5043064;28;20120;-62
2023/07/27 06:06:20;;;;;;;5.68;3.17;;;21.80;88.40;;;;;;5052699;28;20056;-65
2023/07/27 06:08:46;;;;;;;5.18;3.10;;;21.60;88.20;;;;;;5045903;28;20543;-69
2023/07/27 06:11:12;;;;;;;5.38;3.25;;;21.70;88.40;;;;;;5051194;28;20049;-70
2023/07/27 06:13:37;;;;;;;5.50;3.33;;;21.70;88.40;;;;;;5050627;28;20064;-62
2023/07/27 06:16:03;;;;;;;7.40;3.42;;;21.80;88.40;;;;;;5048574;28;20051;-69
2023/07/27 06:18:30;;;;;;;4.97;3.05;;;21.80;88.50;;;;;;5047684;28;20040;-66
2023/07/27 06:20:57;;;;;;;5.32;3.17;;;21.60;88.60;;;;;;5044166;28;20052;-70
2023/07/27 06:23:23;;;;;;;5.15;3.17;;;21.70;88.50;;;;;;5042428;28;20045;-68
2023/07/27 06:25:49;;;;;;;4.95;3.00;;;21.70;88.60;;;;;;5044342;28;20055;-68
2023/07/27 06:28:15;;;;;;;5.45;2.97;;;21.90;88.60;;;;;;5034828;28;20077;-68
2023/07/27 06:30:41;;;;;;;5.80;3.20;;;;;;;;;;5039872;28;20584;-66
2023/07/27 06:33:07;;;;;;;5.85;3.13;;;21.70;88.50;;;;;;5044515;28;20044;-68
2023/07/27 06:35:33;;;;;;;5.47;2.92;;;21.70;88.60;;;;;;5050711;28;20398;-70
2023/07/27 06:37:59;;;;;;;7.07;3.10;;;21.70;88.80;;;;;;5049925;28;20052;-70
2023/07/27 06:40:25;;;;;;;6.50;3.45;;;21.80;88.60;;;;;;5043907;28;20049;-61
2023/07/27 06:42:51;;;;;;;5.35;3.05;;;21.70;88.40;;;;;;5049213;28;20048;-60
2023/07/27 06:45:17;;;;;;;5.20;3.00;;;;;;;;;;5060168;28;20037;-65
2023/07/27 06:47:43;;;;;;;5.85;3.50;;;21.60;84.70;;;;;;5049846;28;20127;-67
2023/07/27 06:50:09;;;;;;;5.65;3.00;;;21.80;88.20;;;;;;5059553;28;20116;-60
2023/07/27 06:52:35;;;;;;;5.22;2.88;;;21.70;88.50;;;;;;5062361;28;20044;-62
2023/07/27 06:55:01;;;;;;;5.07;2.80;;;21.80;88.60;;;;;;5042388;28;20422;-69
2023/07/27 06:57:27;;;;;;;6.18;3.20;;;21.90;88.50;;;;;;5045426;28;20051;-65
2023/07/27 06:59:52;;;;;;;5.50;3.03;;;21.90;88.60;;;;;;5051619;28;20124;-68
2023/07/27 07:02:18;;;;;;;4.82;2.90;;;21.80;88.60;;;;;;5043553;28;20045;-68
2023/07/27 07:04:45;;;;;;;5.22;2.75;;;22.00;88.80;;;;;;5050083;28;20416;-69
2023/07/27 07:07:11;;;;;;;5.60;3.08;;;21.90;88.60;;;;;;5047706;28;20056;-67
2023/07/27 07:09:38;;;;;;;5.43;2.63;;;22.10;88.70;;;;;;5049888;28;20041;-63
2023/07/27 07:12:04;;;;;;;5.55;3.33;;;22.10;88.70;;;;;;5042711;28;20068;-61
2023/07/27 07:14:31;;;;;;;4.68;3.00;;;;;;;;;;5036039;28;20041;-64
2023/07/27 07:16:58;;;;;;;5.95;2.95;;;22.10;88.70;;;;;;5040544;28;20033;-67
2023/07/27 07:19:24;;;;;;;5.53;3.40;;;;;;;;;;5071646;28;20053;-67
2023/07/27 07:21:49;;;;;;;5.43;3.03;;;22.10;88.60;;;;;;5050920;28;20041;-68
2023/07/27 07:24:15;;;;;;;5.45;3.08;;;22.20;88.80;;;;;;5050710;28;20509;-67
2023/07/27 07:26:41;;;;;;;4.90;3.20;;;22.00;88.60;;;;;;5046595;28;20481;-66
2023/07/27 07:29:07;;;;;;;5.15;2.83;;;22.00;88.90;;;;;;5037189;28;20033;-66
2023/07/27 07:31:33;;;;;;;7.53;3.47;;;22.20;89.00;;;;;;5045162;28;20495;-69
2023/07/27 07:33:59;;;;;;;5.63;3.15;;;22.20;89.00;;;;;;5042247;28;20041;-67
2023/07/27 07:36:25;;;;;;;4.47;2.78;;;22.00;88.80;;;;;;5047254;28;20048;-65
2023/07/27 07:38:51;;;;;;;5.03;3.22;;;22.00;88.90;;;;;;5045600;28;20182;-68
2023/07/27 07:41:17;;;;;;;5.25;3.00;;;22.10;89.10;;;;;;5050852;28;20133;-68
2023/07/27 07:43:43;;;;;;;4.95;2.85;;;22.10;89.00;;;;;;5050275;28;20044;-68
2023/07/27 07:46:12;;;;;;;7.15;3.25;;;22.00;89.10;;;;;;5042521;28;20060;-68
2023/07/27 07:48:38;;;;;;;5.13;3.03;;;21.80;89.60;;;;;;5039314;28;20391;-63
2023/07/27 07:51:13;;;;;;;5.78;3.30;;;22.00;89.00;;;;;;5048707;28;20037;-63
2023/07/27 07:53:39;;;;;;;7.00;3.45;;;22.00;89.10;;;;;;5048092;28;20041;-61
2023/07/27 07:56:05;;;;;;;6.43;3.40;;;22.10;89.20;;;;;;5049975;28;20171;-63
2023/07/27 07:58:31;;;;;;;6.15;3.17;;;22.00;89.30;;;;;;5037936;28;20045;-66
2023/07/27 08:00:57;;;;;;;5.55;3.00;;;;;;;;;;5047406;28;20103;-64
2023/07/27 08:03:23;;;;;;;8.52;3.30;;;21.90;89.30;;;;;;5035667;28;20056;-68
2023/07/27 08:05:49;;;;;;;5.60;3.40;;;21.90;89.30;;;;;;5050328;28;20483;-69
2023/07/27 08:08:14;;;;;;;5.63;3.33;;;22.00;89.40;;;;;;5043194;28;20116;-70
2023/07/27 08:10:40;;;;;;;6.35;3.30;;;;;;;;;;5049805;28;20049;-67
2023/07/27 08:13:06;;;;;;;5.70;3.45;;;21.90;89.30;;;;;;5049216;28;20475;-69
2023/07/27 08:15:32;;;;;;;6.00;3.30;;;22.10;89.80;;;;;;5046872;28;20098;-68
2023/07/27 08:17:58;;;;;;;4.85;3.30;;;21.90;89.40;;;;;;5050203;28;20044;-60
2023/07/27 08:20:23;;;;;;;5.65;3.17;;;22.10;90.00;;;;;;5039982;28;20128;-71
2023/07/27 08:22:49;;;;;;;5.97;3.33;;;21.80;90.10;;;;;;5046096;28;20037;-70
2023/07/27 08:25:15;;;;;;;5.22;3.38;;;22.00;89.60;;;;;;5041075;28;20079;-70
2023/07/27 08:27:41;;;;;;;5.45;2.92;;;22.00;89.70;;;;;;5059908;28;20047;-61
2023/07/27 08:30:08;;;;;;;6.10;3.45;;;22.00;86.70;;;;;;5042084;28;20052;-62
2023/07/27 08:32:34;;;;;;;6.65;3.33;;;22.00;89.60;;;;;;5049387;28;20041;-70
2023/07/27 08:35:00;;;;;;;5.13;2.83;;;;;;;;;;5043763;28;20395;-63
2023/07/27 08:37:25;;;;;;;6.55;2.85;;;22.10;89.80;;;;;;5045813;28;20395;-61
2023/07/27 08:39:52;;;;;;;4.97;2.80;;;;;;;;;;5043763;28;20052;-63
2023/07/27 08:42:18;;;;;;;5.38;3.10;;;22.00;89.50;;;;;;5039078;28;20399;-62
2023/07/27 08:44:44;;;;;;;4.80;2.83;;;22.10;86.90;;;;;;5042402;28;20098;-62
2023/07/27 08:47:10;;;;;;;4.35;2.72;;;22.20;89.80;;;;;;5041774;28;20447;-63
2023/07/27 08:49:36;;;;;;;5.25;2.63;;;22.00;87.20;;;;;;5034100;28;20175;-60
2023/07/27 08:52:03;;;;;;;6.05;2.90;;;;;;;;;;5044287;28;20120;-60
2023/07/27 08:54:29;;;;;;;4.95;2.70;;;22.20;89.50;;;;;;5046395;28;20055;-68
2023/07/27 08:56:55;;;;;;;4.47;2.60;;;22.30;89.70;;;;;;5037017;28;20081;-66
2023/07/27 08:59:24;;;;;;;5.85;2.78;;;22.10;89.60;;;;;;5042449;28;20118;-61
2023/07/27 09:01:52;;;;;;;4.90;2.80;;;22.10;89.90;;;;;;5049157;28;20053;-66
2023/07/27 09:04:18;;;;;;;5.32;2.95;;;22.10;87.80;;;;;;5042484;28;20084;-61
2023/07/27 09:06:44;;;;;;;5.50;2.60;;;22.10;89.80;;;;;;5043472;28;20283;-62
2023/07/27 09:09:25;;;;;;;5.25;2.97;;;22.20;89.80;;;;;;5044802;28;20279;-64
2023/07/27 09:11:51;;;;;;;4.55;2.50;;;22.20;89.80;;;;;;5039343;28;20499;-61
2023/07/27 09:14:20;;;;;;;4.57;2.90;;;22.20;90.00;;;;;;5037855;28;20122;-61
2023/07/27 09:16:46;;;;;;;4.68;2.60;;;22.30;89.90;;;;;;5046066;28;20041;-60
2023/07/27 09:19:13;;;;;;;5.18;2.70;;;;;;;;;;5046038;28;20183;-60
2023/07/27 09:21:46;;;;;;;4.68;2.65;;;22.20;89.90;;;;;;5045611;28;20100;-69
2023/07/27 09:24:16;;;;;;;5.47;2.72;;;22.10;86.30;;;;;;5053345;28;20044;-61
2023/07/27 09:26:45;;;;;;;4.60;2.88;;;22.30;90.00;;;;;;5051595;28;20092;-61
2023/07/27 09:29:14;;;;;;;5.15;2.47;;;22.40;90.10;;;;;;5044016;28;20045;-61
2023/07/27 09:31:54;;;;;;;4.90;2.60;;;22.30;90.00;;;;;;5036537;28;20045;-60
2023/07/27 09:34:20;;;;;;;4.97;2.58;;;22.20;90.00;;;;;;5045880;28;20120;-60
2023/07/27 09:36:47;;;;;;;5.00;2.78;;;22.20;90.00;;;;;;5052009;28;21023;-61
2023/07/27 09:39:16;;;;;;;5.18;2.80;;;22.30;90.00;;;;;;5052775;28;20033;-61
2023/07/27 09:41:43;;;;;;;5.95;2.80;;;22.10;89.90;;;;;;5043302;28;20038;-61
2023/07/27 09:44:18;;;;;;;5.93;2.90;;;22.20;90.10;;;;;;5046904;28;20113;-61
2023/07/27 09:46:46;;;;;;;4.07;2.55;;;22.30;90.00;;;;;;5044684;28;20037;-69
2023/07/27 09:49:13;;;;;;;4.15;2.50;;;22.30;90.00;;;;;;5052844;28;20041;-68
2023/07/27 09:51:39;;;;;;;4.85;2.65;;;22.30;90.00;;;;;;5050006;28;20037;-71
2023/07/27 09:54:05;;;;;;;5.38;2.70;;;22.20;90.00;;;;;;5051631;28;20049;-69
2023/07/27 09:56:31;;;;;;;5.72;2.25;;;22.20;90.00;;;;;;5047568;28;20510;-71
2023/07/27 09:58:58;;;;;;;4.47;2.35;;;;;;;;;;5044725;28;20063;-67
2023/07/27 10:01:24;;;;;;;4.47;2.20;;;22.30;90.00;;;;;;5046773;28;20038;-69
2023/07/27 10:03:50;;;;;;;4.35;2.60;;;22.30;90.10;;;;;;5047449;28;20427;-70
2023/07/27 10:06:16;;;;;;;4.60;2.50;;;22.20;87.80;;;;;;5045022;28;20045;-70
2023/07/27 10:08:42;;;;;;;3.65;2.40;;;22.20;90.00;;;;;;5043340;28;20041;-69
2023/07/27 10:11:08;;;;;;;4.40;2.60;;;22.30;90.00;;;;;;5013821;28;20046;-71
2023/07/27 10:13:41;;;;;;;4.22;2.72;;;22.50;87.80;;;;;;5013259;28;20056;-61
2023/07/27 10:16:09;;;;;;;3.80;2.47;;;22.40;90.10;;;;;;5014914;28;20073;-65
2023/07/27 10:18:42;;;;;;;3.67;2.30;;;22.30;90.40;;;;;;5009124;28;20046;-69
2023/07/27 10:21:21;;;;;;;3.65;2.28;;;22.30;90.10;;;;;;4994527;28;20046;-70
2023/07/27 10:23:56;;;;;;;3.88;2.10;;;22.50;90.10;;;;;;4999035;28;20133;-64
2023/07/27 10:26:46;;;;;;;4.63;2.40;;;22.30;90.10;;;;;;5000923;28;20061;-68
2023/07/27 10:29:22;;;;;;;4.60;2.47;;;22.30;90.10;;;;;;4997092;28;20046;-70
2023/07/27 10:32:01;;;;;;;4.30;2.30;;;22.40;90.10;;;;;;5000847;28;20046;-70
2023/07/27 10:34:27;;;;;;;3.63;2.10;;;22.20;87.10;;;;;;4998429;28;20049;-64
2023/07/27 10:36:58;;;;;;;4.72;2.10;;;22.40;90.10;;;;;;4999305;28;20050;-68
2023/07/27 10:39:33;;;;;;;4.07;2.40;;;22.40;90.10;;;;;;5000903;28;20404;-71
2023/07/27 10:42:03;;;;;;;4.68;2.47;;;22.30;86.00;;;;;;5004725;28;20054;-63
2023/07/27 10:44:45;;;;;;;4.03;2.10;;;22.50;90.10;;;;;;5005770;28;20069;-68
2023/07/27 10:47:23;;;;;;;3.60;1.90;;;22.40;90.10;;;;;;5000353;28;20103;-69
2023/07/27 10:49:51;;;;;;;4.60;2.38;;;22.30;87.40;;;;;;5000481;28;20046;-64
2023/07/27 10:52:20;;;;;;;3.38;1.98;;;22.70;86.20;;;;;;4999951;28;20775;-65
2023/07/27 10:54:46;;;;;;;4.47;2.20;;;22.60;90.50;;;;;;4999855;28;20095;-69
2023/07/27 10:57:14;;;;;;;5.03;2.00;;;22.40;87.60;;;;;;5005302;28;20125;-63
2023/07/27 10:59:41;;;;;;;4.18;2.20;;;22.20;88.10;;;;;;5004093;28;20038;-66
2023/07/27 11:02:29;;;;;;;4.13;1.83;;;22.70;90.20;;;;;;5003441;28;20034;-65
2023/07/27 11:04:56;;;;;;;3.15;1.85;;;22.50;87.10;;;;;;5006546;28;20512;-69
2023/07/27 11:07:35;;;;;;;3.97;2.00;;;22.50;90.50;;;;;;5003928;28;20396;-62
2023/07/27 11:10:09;;;;;;;3.03;1.83;;;22.40;90.10;;;;;;5000550;28;20484;-60
2023/07/27 11:13:00;;;;;;;3.80;1.92;;;22.40;90.10;;;;;;5002285;28;20042;-60
2023/07/27 11:15:29;;;;;;;2.50;1.60;;;22.20;88.30;;;;;;5013227;28;20428;-61
2023/07/27 11:17:56;;;;;;;3.10;1.80;;;22.40;90.10;;;;;;5013357;28;20425;-60
2023/07/27 11:20:23;;;;;;;3.05;1.60;;;22.50;90.30;;;;;;5015317;28;20046;-70
2023/07/27 11:22:49;;;;;;;4.30;1.90;;;22.30;90.20;;;;;;5014809;28;20052;-63
2023/07/27 11:25:15;;;;;;;3.67;1.88;;;22.50;90.40;;;;;;5015464;28;20115;-69
2023/07/27 11:27:41;;;;;;;2.85;1.63;;;22.30;90.40;;;;;;4995774;28;20520;-69
2023/07/27 11:30:12;;;;;;;4.22;1.95;;;22.50;90.30;;;;;;5004056;28;20092;-60
2023/07/27 11:32:38;;;;;;;2.85;1.70;;;22.30;90.30;;;;;;4997829;28;20043;-68
2023/07/27 11:35:04;;;;;;;3.25;1.65;;;22.40;90.30;;;;;;4998206;28;20054;-69
2023/07/27 11:37:31;;;;;;;2.65;1.80;;;22.30;90.30;;;;;;5002425;28;20142;-60
2023/07/27 11:39:56;;;;;;;2.97;1.60;;;22.30;90.30;;;;;;5015155;28;20049;-62
2023/07/27 11:42:29;;;;;;;2.67;1.50;;;22.40;90.40;;;;;;5011017;28;20059;-62
2023/07/27 11:44:59;;;;;;;2.53;1.60;;;22.30;90.40;;;;;;4976932;28;20058;-60
2023/07/27 11:47:25;;;;;;;2.40;1.40;;;22.20;90.50;;;;;;4994710;28;20390;-69
2023/07/27 11:49:53;;;;;;;2.88;1.60;;;22.40;90.50;;;;;;4997314;28;20105;-60
2023/07/27 11:52:20;;;;;;;3.20;1.70;;;22.30;90.50;;;;;;5008172;28;20057;-60
2023/07/27 11:54:47;;;;;;;3.35;1.42;;;22.30;90.50;;;;;;4997099;28;20053;-68
2023/07/27 11:57:15;;;;;;;2.67;1.60;;;22.20;88.60;;;;;;5006066;28;20042;-62
2023/07/27 11:59:40;;;;;;;4.65;1.60;;;22.30;90.60;;;;;;5003647;28;20103;-66
2023/07/27 12:02:06;;;;;;;2.22;1.40;;;22.20;90.60;;;;;;5007491;28;20472;-66
2023/07/27 12:04:32;;;;;;;2.08;1.30;;;22.20;90.60;;;;;;5002944;28;20045;-60
2023/07/27 12:06:58;;;;;;;2.40;1.48;;;22.20;90.60;;;;;;5009514;28;20046;-60
2023/07/27 12:09:25;;;;;;;2.83;1.60;;;22.40;89.00;;;;;;5003410;28;20046;-60
2023/07/27 12:11:51;;;;;;;3.42;1.45;;;22.30;90.70;;;;;;5007531;28;20049;-61
2023/07/27 12:14:20;;;;;;;2.80;1.60;;;22.50;90.70;;;;;;4997358;28;20051;-64
2023/07/27 12:16:46;;;;;;;3.22;1.50;;;22.30;90.20;;;;;;4999749;28;20045;-69
2023/07/27 12:19:11;;;;;;;1.77;1.27;;;22.50;90.90;;;;;;4999256;28;20054;-60
2023/07/27 12:21:38;;;;;;;3.22;1.40;;;22.40;90.60;;;;;;4995805;28;20125;-65
2023/07/27 12:24:07;;;;;;;2.35;1.30;;;22.40;91.00;;;;;;4996551;28;20045;-60
2023/07/27 12:26:33;;;;;;;2.35;1.30;;;22.30;90.70;;;;;;5003833;28;20409;-63
2023/07/27 12:28:59;;;;;;;2.80;1.30;;;22.40;90.60;;;;;;5008224;28;20053;-62
2023/07/27 12:31:25;;;;;;;2.72;1.38;;;22.50;90.70;;;;;;5003417;28;20041;-69
2023/07/27 12:33:51;;;;;;;2.78;1.48;;;;;;;;;;4999112;28;20100;-61
2023/07/27 12:36:17;;;;;;;2.30;1.20;;;22.50;90.80;;;;;;4997432;28;20169;-67
2023/07/27 12:38:43;;;;;;;2.97;1.50;;;22.50;90.70;;;;;;5006574;28;20501;-69
2023/07/27 12:41:09;;;;;;;2.70;1.50;;;22.60;90.80;;;;;;5004426;28;20577;-69
2023/07/27 12:43:35;;;;;;;3.25;1.20;;;22.40;91.10;;;;;;5006730;28;20407;-61
2023/07/27 12:46:02;;;;;;;1.77;1.25;;;22.40;90.70;;;;;;5004863;28;20046;-64
2023/07/27 12:48:27;;;;;;;1.52;1.10;;;22.60;90.80;;;;;;4998305;28;20096;-69
2023/07/27 12:50:53;;;;;;;2.03;1.17;;;22.30;91.00;;;;;;5011467;28;20033;-69
2023/07/27 12:53:19;;;;;;;2.63;1.38;;;22.50;90.70;;;;;;5003603;28;20045;-61
2023/07/27 12:55:45;;;;;;;3.67;1.35;;;;;;;;;;5002247;28;20053;-66